Time;durP1;ratioP1;P1;durP2;ratioP2;P2;SDS_P1;SDS_P2;PMS_P1;PMS_P2;Temp;Humidity;BMP_temperature;BMP_pressure;BME280_temperature;BME280_humidity;BME280_pressure;Samples;Min_cycle;Max_cycle;Signal;HPM_P1;HPM_P2
2021/07/07 00:00:24;;;;;;;0.60;0.60;;;19.10;99.90;;;20.01;100.00;100269.41;3512838;40;102365;-84
2021/07/07 00:02:51;;;;;;;2.15;0.60;;;19.50;99.90;;;20.07;100.00;100254.09;3505291;39;100003;-83
2021/07/07 00:05:21;;;;;;;0.70;0.52;;;19.40;99.90;;;20.02;100.00;100254.78;3552198;23;101925;-82
2021/07/07 00:07:48;;;;;;;0.70;0.70;;;19.40;99.90;;;19.96;100.00;100254.81;3528794;39;100383;-82
2021/07/07 00:10:18;;;;;;;2.80;1.30;;;19.50;99.90;;;19.82;100.00;100264.09;3519424;39;100781;-83
2021/07/07 00:12:47;;;;;;;0.88;0.70;;;19.40;99.90;;;19.82;100.00;100280.38;3521966;39;100188;-85
2021/07/07 00:15:18;;;;;;;1.98;0.88;;;19.30;99.90;;;19.82;100.00;100269.53;3512008;39;101071;-83
2021/07/07 00:17:48;;;;;;;1.42;1.00;;;19.30;99.90;;;19.71;100.00;100280.03;3517054;39;101122;-82
2021/07/07 00:20:18;;;;;;;1.77;0.98;;;19.20;99.90;;;19.69;100.00;100305.72;3503859;40;102770;-86
2021/07/07 00:22:45;;;;;;;5.07;0.82;;;18.90;99.90;;;19.61;100.00;100311.41;3525355;39;99979;-84
2021/07/07 00:25:14;;;;;;;0.68;0.55;;;20.30;99.90;;;19.65;100.00;100321.63;3520201;40;101081;-86
2021/07/07 00:31:08;;;;;;;1.48;1.23;;;19.20;99.90;;;19.50;100.00;100333.81;3569653;22;100848;-85
2021/07/07 00:34:20;;;;;;;2.13;0.90;;;19.10;99.90;;;19.43;100.00;100344.66;3641743;22;101635;-83
2021/07/07 00:37:32;;;;;;;0.80;0.73;;;19.10;99.90;;;19.34;100.00;100338.63;3578765;39;100978;-87
2021/07/07 00:40:09;;;;;;;3.35;1.25;;;18.90;99.90;;;19.06;100.00;100342.66;3687976;22;104262;-84
2021/07/07 00:42:36;;;;;;;2.97;0.68;;;19.10;99.90;;;18.99;100.00;100348.13;3616795;22;105246;-85
2021/07/07 00:45:04;;;;;;;0.70;0.63;;;18.70;99.90;;;18.83;100.00;100362.94;3569661;39;101800;-87
2021/07/07 00:47:32;;;;;;;0.90;0.70;;;18.60;99.90;;;18.68;100.00;100378.56;3570916;39;100908;-90
2021/07/07 00:49:59;;;;;;;0.90;0.60;;;18.50;99.90;;;18.60;100.00;100387.75;3569069;39;101223;-88
2021/07/07 00:52:26;;;;;;;0.82;0.50;;;19.30;99.90;;;18.46;100.00;100387.91;3528576;22;105102;-83
2021/07/07 00:54:54;;;;;;;0.90;0.82;;;18.30;99.90;;;18.18;100.00;100379.94;3616154;22;101572;-87
2021/07/07 00:57:57;;;;;;;0.95;0.70;;;18.20;99.90;;;18.06;100.00;100362.63;3578188;22;105482;-86
2021/07/07 01:00:35;;;;;;;0.20;0.20;;;18.30;99.90;;;17.82;100.00;100342.38;3653237;22;107013;31
2021/07/07 01:03:25;;;;;;;0.50;0.50;;;17.70;99.90;;;17.69;100.00;100362.09;3323538;22;107010;-92
2021/07/07 01:05:52;;;;;;;2.38;0.70;;;17.50;99.90;;;17.55;100.00;100374.75;3566289;22;105882;-89
2021/07/07 01:08:22;;;;;;;0.70;0.70;;;17.20;99.90;;;17.45;100.00;100381.53;3148580;22;108016;-88
2021/07/07 01:10:50;;;;;;;0.85;0.40;;;17.20;99.90;;;17.33;100.00;100391.25;2967533;22;107430;-87
2021/07/07 01:13:18;;;;;;;4.43;0.75;;;17.00;99.90;;;17.20;100.00;100402.81;3727146;22;102384;-90
2021/07/07 01:16:26;;;;;;;2.40;0.90;;;17.20;99.90;;;17.03;100.00;100409.59;3619270;22;106611;-87
2021/07/07 01:19:07;;;;;;;0.38;0.38;;;16.90;99.90;;;16.90;100.00;100410.31;3513317;22;108397;31
2021/07/07 01:21:36;;;;;;;1.60;0.60;;;16.60;99.90;;;16.76;100.00;100428.28;3578134;22;104495;31
2021/07/07 01:24:40;;;;;;;0.63;0.52;;;16.50;99.90;;;16.72;100.00;100431.56;3638138;22;108673;-87
2021/07/07 01:27:16;;;;;;;1.42;0.82;;;16.40;99.90;;;16.68;100.00;100450.06;3359390;22;107027;-87
2021/07/07 01:29:43;;;;;;;0.60;0.60;;;17.10;99.90;;;16.66;100.00;100473.72;3569750;39;102867;-85
2021/07/07 01:32:10;;;;;;;2.50;0.98;;;17.20;99.90;;;16.64;100.00;100469.53;3583106;39;101324;-90
2021/07/07 01:34:38;;;;;;;1.48;0.88;;;16.60;99.90;;;16.49;100.00;100467.69;3286843;22;108146;-85
2021/07/07 01:37:42;;;;;;;1.65;1.00;;;15.90;99.90;;;16.56;100.00;100459.66;3632680;22;109591;-88
2021/07/07 01:40:24;;;;;;;0.50;0.50;;;16.60;99.90;;;16.56;100.00;100442.63;2796334;22;104539;-86
2021/07/07 01:42:55;;;;;;;0.55;0.50;;;16.00;99.90;;;16.50;100.00;100422.59;3366722;22;106760;-88
2021/07/07 01:45:28;;;;;;;0.98;0.88;;;15.50;99.90;;;16.40;100.00;100454.50;3028869;22;105922;-87
2021/07/07 01:47:56;;;;;;;1.05;0.80;;;16.00;99.90;;;16.41;100.00;100440.81;2865209;22;106533;-86
2021/07/07 01:50:59;;;;;;;0.75;0.68;;;16.30;99.90;;;16.42;100.00;100425.44;3659071;22;108237;-89
2021/07/07 01:53:36;;;;;;;0.82;0.55;;;16.30;99.90;;;16.22;100.00;100408.19;3748096;22;106014;31
2021/07/07 01:56:06;;;;;;;0.65;0.63;;;15.80;99.90;;;16.30;100.00;100410.78;3718620;22;110843;-86
2021/07/07 01:58:33;;;;;;;0.40;0.40;;;16.80;99.90;;;16.21;100.00;100409.22;2996100;22;107023;-85
2021/07/07 02:01:02;;;;;;;0.63;0.63;;;15.80;99.90;;;16.28;100.00;100392.06;3651656;22;107165;-93
2021/07/07 02:03:32;;;;;;;3.33;0.98;;;16.00;99.90;;;16.32;100.00;100368.22;3724721;22;105674;31
2021/07/07 02:06:35;;;;;;;2.30;0.68;;;15.70;99.90;;;16.30;100.00;100351.38;3801697;22;105228;31
2021/07/07 02:09:48;;;;;;;3.37;0.80;;;15.70;99.90;;;16.16;100.00;100364.75;3449434;22;107167;-87
2021/07/07 02:13:05;;;;;;;0.60;0.60;;;16.20;99.90;;;16.06;100.00;100374.19;2373872;22;107561;-91
2021/07/07 02:15:42;;;;;;;0.70;0.70;;;16.60;99.90;;;16.08;100.00;100372.13;2640158;22;107132;-85
2021/07/07 02:18:10;;;;;;;0.63;0.52;;;15.60;99.90;;;16.15;100.00;100351.44;2960136;22;107602;-86
2021/07/07 02:20:43;;;;;;;0.73;0.73;;;16.80;99.90;;;16.17;100.00;100335.88;3021011;22;107443;-89
2021/07/07 02:23:16;;;;;;;4.18;0.65;;;15.60;99.90;;;16.17;100.00;100347.53;3186364;22;107475;-91
2021/07/07 02:26:21;;;;;;;0.60;0.60;;;15.60;99.90;;;16.15;100.00;100376.56;3258704;22;105443;-90
2021/07/07 02:29:00;;;;;;;0.82;0.73;;;15.60;99.90;;;16.14;100.00;100360.56;2367961;22;109306;31
2021/07/07 02:31:29;;;;;;;0.50;0.50;;;15.60;99.90;;;16.23;100.00;100363.97;3268516;22;105710;-88
2021/07/07 02:34:33;;;;;;;1.45;0.88;;;15.20;99.90;;;16.26;100.00;100374.38;2524187;22;106593;31
2021/07/07 02:37:10;;;;;;;0.90;0.80;;;15.70;99.90;;;16.38;100.00;100372.84;3018397;22;107722;-88
2021/07/07 02:40:00;;;;;;;0.82;0.63;;;15.70;99.90;;;16.40;100.00;100370.78;2185016;22;108022;-89
2021/07/07 02:42:29;;;;;;;5.03;1.23;;;15.80;99.90;;;16.57;100.00;100363.25;2091070;22;107271;31
2021/07/07 02:45:01;;;;;;;0.90;0.80;;;16.20;99.90;;;16.49;100.00;100369.63;2818721;22;107440;-88
2021/07/07 02:47:29;;;;;;;2.00;1.02;;;15.90;99.90;;;16.60;100.00;100381.75;2687795;22;107333;-89
2021/07/07 02:49:57;;;;;;;3.97;1.17;;;15.00;99.90;;;16.57;100.00;100395.66;3266337;22;106087;31
2021/07/07 02:53:06;;;;;;;2.85;1.00;;;16.00;99.90;;;16.56;100.00;100394.00;2821817;22;107680;-88
2021/07/07 02:55:47;;;;;;;1.48;1.05;;;17.10;99.90;;;16.63;100.00;100403.84;3495352;22;106918;-88
2021/07/07 02:58:15;;;;;;;0.70;0.70;;;16.10;99.90;;;16.50;100.00;100415.34;2098614;22;106854;-89
2021/07/07 03:00:48;;;;;;;1.55;1.15;;;16.60;99.90;;;16.70;100.00;100439.84;1825290;22;106572;-92
2021/07/07 03:03:55;;;;;;;2.67;1.08;;;16.10;99.90;;;16.60;100.00;100446.59;2567901;22;107449;-92
2021/07/07 03:06:33;;;;;;;1.55;1.42;;;16.90;99.90;;;16.44;100.00;100436.91;2009733;22;107242;31
2021/07/07 03:09:05;;;;;;;1.50;0.98;;;16.20;99.90;;;16.50;100.00;100431.53;3054546;22;110105;-88
2021/07/07 03:12:09;;;;;;;0.68;0.68;;;16.20;99.90;;;16.50;100.00;100438.81;2899057;22;107352;31
2021/07/07 03:14:45;;;;;;;3.97;1.30;;;16.40;99.90;;;16.34;100.00;100463.34;2997963;22;106124;-86
2021/07/07 03:17:50;;;;;;;0.75;0.75;;;16.80;99.90;;;16.32;100.00;100457.34;3369461;22;108244;-86
2021/07/07 03:20:26;;;;;;;1.73;1.27;;;16.60;99.90;;;16.33;100.00;100473.31;3390027;22;107101;-91
2021/07/07 03:22:54;;;;;;;1.95;1.50;;;17.20;99.90;;;16.48;100.00;100490.31;3731416;22;107157;-88
2021/07/07 03:25:58;;;;;;;2.45;1.10;;;16.10;99.90;;;16.49;100.00;100496.56;3642277;22;107531;-88
2021/07/07 03:28:36;;;;;;;1.50;1.23;;;16.10;99.90;;;16.48;100.00;100503.81;3086222;22;106227;31
2021/07/07 03:31:39;;;;;;;1.53;1.13;;;16.10;99.90;;;16.50;100.00;100512.56;3824873;22;104828;-89
2021/07/07 03:34:18;;;;;;;1.23;1.02;;;16.10;99.90;;;16.58;100.00;100518.88;2483318;22;107537;31
2021/07/07 03:36:46;;;;;;;1.55;1.20;;;15.70;99.90;;;16.57;100.00;100511.81;2915263;22;105703;-88
2021/07/07 03:39:14;;;;;;;4.47;1.15;;;16.80;99.90;;;16.53;100.00;100503.25;3516976;22;106804;-86
2021/07/07 03:41:45;;;;;;;1.25;1.15;;;17.20;99.90;;;16.46;100.00;100527.47;3100342;22;107514;-87
2021/07/07 03:44:14;;;;;;;6.93;1.30;;;15.80;99.90;;;16.59;100.00;100542.16;3630615;22;107352;-87
2021/07/07 03:47:17;;;;;;;1.98;1.40;;;16.10;99.90;;;16.55;100.00;100533.63;3586569;22;105470;-86
2021/07/07 03:49:55;;;;;;;2.15;1.42;;;16.30;99.90;;;16.55;100.00;100522.81;2874028;22;108295;-90
2021/07/07 03:54:47;;;;;;;1.40;1.30;;;16.00;99.90;;;16.56;100.00;100545.28;3307345;22;106032;-84
2021/07/07 03:57:15;;;;;;;1.73;1.63;;;16.20;99.90;;;16.71;100.00;100571.22;3329366;22;105637;-84
2021/07/07 04:00:20;;;;;;;1.92;1.60;;;16.20;99.90;;;16.71;100.00;100581.19;3612557;22;105825;-86
2021/07/07 04:03:32;;;;;;;2.60;1.80;;;16.70;99.90;;;16.64;100.00;100583.84;3552135;39;102089;-83
2021/07/07 04:06:11;;;;;;;1.45;1.27;;;16.30;99.90;;;16.77;100.00;100594.78;3566241;22;104236;-91
2021/07/07 04:08:42;;;;;;;2.47;1.42;;;16.30;99.90;;;16.75;100.00;100604.94;2963897;22;105724;-89
2021/07/07 04:11:09;;;;;;;2.13;1.50;;;17.00;99.90;;;16.82;100.00;100613.13;3587314;22;102732;-89
2021/07/07 04:13:37;;;;;;;1.85;1.25;;;16.20;99.90;;;16.51;100.00;100599.84;3673373;22;105075;-88
2021/07/07 04:19:01;;;;;;;1.85;1.30;;;16.30;99.90;;;16.69;100.00;100594.88;2997230;22;106887;-88
2021/07/07 04:22:04;;;;;;;1.23;0.98;;;16.30;99.90;;;16.59;100.00;100624.03;3750789;22;104911;-87
2021/07/07 04:24:40;;;;;;;1.10;1.00;;;16.20;99.90;;;16.68;100.00;100624.81;2696701;22;107189;-86
2021/07/07 04:27:09;;;;;;;1.48;1.10;;;16.20;99.90;;;16.69;100.00;100624.59;3699745;22;104975;-89
2021/07/07 04:29:40;;;;;;;1.02;0.93;;;15.50;99.90;;;16.72;100.00;100591.81;2030998;22;106598;-90
2021/07/07 04:32:29;;;;;;;3.42;1.60;;;16.20;99.90;;;16.70;100.00;100563.31;2516353;22;107472;-89
2021/07/07 04:34:57;;;;;;;4.38;1.30;;;16.20;99.90;;;16.79;100.00;100559.47;3081199;22;107723;-89
2021/07/07 04:38:01;;;;;;;1.00;0.80;;;16.20;99.90;;;16.68;100.00;100559.97;2792038;22;106748;-87
2021/07/07 04:41:14;;;;;;;2.05;1.10;;;16.30;99.90;;;16.60;100.00;100565.44;3639647;22;105949;31
2021/07/07 04:43:50;;;;;;;1.33;1.05;;;16.30;99.90;;;16.42;100.00;100582.09;2921250;22;107757;-87
2021/07/07 04:46:53;;;;;;;4.03;0.95;;;16.30;99.90;;;16.57;100.00;100607.19;3195739;22;105871;-91
2021/07/07 04:49:29;;;;;;;2.35;1.33;;;16.30;99.90;;;16.49;100.00;100620.81;3587296;22;105219;-87
2021/07/07 04:51:58;;;;;;;1.48;1.10;;;16.30;99.90;;;16.48;100.00;100621.81;3581893;39;100673;-85
2021/07/07 04:54:26;;;;;;;4.70;1.30;;;16.20;99.90;;;16.50;100.00;100617.09;3609935;22;104882;-88
2021/07/07 04:56:56;;;;;;;2.15;1.85;;;17.30;99.90;;;16.48;100.00;100624.53;3287696;22;107709;-89
2021/07/07 04:59:23;;;;;;;0.90;0.90;;;16.20;99.90;;;16.48;100.00;100633.47;3604054;22;107453;-85
2021/07/07 05:01:50;;;;;;;3.35;1.30;;;16.10;99.90;;;16.49;100.00;100643.25;3621792;22;101611;-85
2021/07/07 05:04:17;;;;;;;1.90;1.67;;;16.10;99.90;;;16.53;100.00;100658.06;3585395;39;100037;-86
2021/07/07 05:06:45;;;;;;;7.65;1.67;;;16.00;99.90;;;16.51;100.00;100651.19;3652194;22;101427;-86
2021/07/07 05:09:51;;;;;;;3.17;1.58;;;16.10;99.90;;;16.71;100.00;100629.84;3639977;22;101723;-87
2021/07/07 05:12:27;;;;;;;1.80;1.30;;;16.20;99.90;;;16.69;100.00;100629.22;3648638;22;105098;-87
2021/07/07 05:14:54;;;;;;;2.33;1.67;;;16.90;99.90;;;16.66;100.00;100638.53;3598584;22;106054;-87
2021/07/07 05:17:22;;;;;;;1.20;1.08;;;16.10;99.90;;;16.63;100.00;100652.41;3610930;22;104915;-89
2021/07/07 05:19:50;;;;;;;1.38;1.27;;;17.20;99.90;;;16.68;100.00;100663.50;3600031;22;109280;31
2021/07/07 05:22:17;;;;;;;1.55;1.40;;;16.20;99.90;;;16.65;100.00;100681.94;3588002;22;105740;-85
2021/07/07 05:25:23;;;;;;;1.50;1.25;;;16.20;99.90;;;16.68;100.00;100695.91;3683698;22;104443;-83
2021/07/07 05:28:01;;;;;;;1.30;1.20;;;16.20;99.90;;;16.62;100.00;100693.94;3325452;22;106689;-89
2021/07/07 05:30:29;;;;;;;2.42;1.20;;;16.30;99.90;;;16.64;100.00;100677.56;3411143;22;105000;-86
2021/07/07 05:33:34;;;;;;;1.85;1.35;;;16.20;99.90;;;16.69;100.00;100657.03;3302216;22;104924;-86
2021/07/07 05:36:10;;;;;;;3.72;1.38;;;16.50;99.90;;;16.61;100.00;100662.53;3804677;22;103931;-86
2021/07/07 05:38:39;;;;;;;2.03;1.15;;;16.20;99.90;;;16.52;100.00;100678.00;3293235;22;106973;-85
2021/07/07 05:41:07;;;;;;;1.42;1.10;;;16.40;99.90;;;16.52;100.00;100686.09;3660947;22;104566;-87
2021/07/07 05:43:34;;;;;;;1.25;0.93;;;16.20;99.90;;;16.53;100.00;100692.34;3581007;22;104168;-85
2021/07/07 05:46:02;;;;;;;1.20;0.98;;;16.20;99.90;;;16.47;100.00;100702.03;3557340;22;101920;-85
2021/07/07 05:48:29;;;;;;;6.45;1.23;;;16.20;99.90;;;16.46;100.00;100696.81;3576954;22;106105;-86
2021/07/07 05:50:57;;;;;;;2.25;1.25;;;16.60;99.90;;;16.57;100.00;100692.81;3616214;22;105777;-84
2021/07/07 05:53:24;;;;;;;2.03;0.95;;;16.20;99.90;;;16.56;100.00;100683.88;3717039;22;104984;-87
2021/07/07 05:55:52;;;;;;;0.73;0.73;;;15.30;99.90;;;16.40;100.00;100687.59;3685608;22;104711;-85
2021/07/07 05:58:20;;;;;;;1.65;1.20;;;15.60;99.90;;;16.36;100.00;100696.25;3530276;40;100063;-84
2021/07/07 06:00:47;;;;;;;2.45;1.38;;;16.80;99.90;;;16.23;100.00;100701.44;3515389;40;102147;-86
2021/07/07 06:03:14;;;;;;;1.60;0.93;;;16.20;99.90;;;16.26;100.00;100703.78;3623536;22;104772;-85
2021/07/07 06:05:41;;;;;;;0.95;0.95;;;16.60;99.90;;;16.25;100.00;100697.56;3594143;22;103511;-85
2021/07/07 06:10:37;;;;;;;1.50;1.02;;;16.10;99.90;;;16.27;100.00;100719.81;3632781;22;104461;-84
2021/07/07 06:13:04;;;;;;;1.98;1.50;;;16.10;99.90;;;16.22;100.00;100730.31;3584841;22;104839;-85
2021/07/07 06:15:36;;;;;;;1.15;0.93;;;17.10;99.90;;;16.35;100.00;100748.56;3569295;39;101711;-84
2021/07/07 06:18:04;;;;;;;2.10;1.23;;;16.10;99.90;;;16.17;100.00;100732.75;3566048;39;102640;-84
2021/07/07 06:20:32;;;;;;;2.88;1.23;;;16.10;99.90;;;16.33;100.00;100729.84;3580591;39;100870;-89
2021/07/07 06:22:59;;;;;;;1.33;1.15;;;16.00;99.90;;;16.40;100.00;100719.16;3583085;39;102323;-84
2021/07/07 06:25:28;;;;;;;1.90;1.30;;;16.00;99.90;;;16.32;100.00;100708.47;3590837;22;106909;-84
2021/07/07 06:27:55;;;;;;;1.35;1.10;;;16.10;99.90;;;16.39;100.00;100709.38;3507990;22;107992;-85
2021/07/07 06:30:26;;;;;;;1.10;1.00;;;16.00;99.90;;;16.38;100.00;100721.22;3595197;39;100433;-87
2021/07/07 06:32:56;;;;;;;1.05;0.90;;;16.10;99.90;;;16.38;100.00;100724.75;3564582;22;105371;-87
2021/07/07 06:35:25;;;;;;;1.60;1.30;;;16.10;99.90;;;16.43;100.00;100729.63;3563341;39;100981;-87
2021/07/07 06:37:53;;;;;;;2.30;1.45;;;16.10;99.90;;;16.39;100.00;100734.53;3575001;39;101156;-84
2021/07/07 06:40:30;;;;;;;3.15;1.10;;;15.10;99.90;;;16.31;100.00;100731.94;3681979;22;104487;31
2021/07/07 06:43:06;;;;;;;1.35;1.23;;;16.10;99.90;;;16.33;100.00;100732.56;3662849;22;105076;-85
2021/07/07 06:46:10;;;;;;;2.42;1.30;;;16.20;99.90;;;16.46;100.00;100723.81;3605283;22;101251;-84
2021/07/07 06:49:23;;;;;;;1.20;1.10;;;16.00;99.90;;;16.56;100.00;100720.84;3509829;22;107202;-84
2021/07/07 06:51:59;;;;;;;1.98;1.13;;;15.80;99.90;;;16.52;100.00;100731.19;3475159;22;107641;-84
2021/07/07 06:55:03;;;;;;;2.13;1.00;;;16.10;99.90;;;16.31;100.00;100729.22;3565399;22;106429;-86
2021/07/07 06:58:15;;;;;;;1.52;1.30;;;16.10;99.90;;;16.32;100.00;100736.28;3537922;39;100593;-84
2021/07/07 07:01:27;;;;;;;0.90;0.90;;;16.10;99.90;;;16.36;100.00;100734.91;3533665;40;101409;-85
2021/07/07 07:04:05;;;;;;;1.50;1.40;;;16.10;99.90;;;16.37;100.00;100744.69;3492352;22;106735;-85
2021/07/07 07:06:32;;;;;;;1.63;1.40;;;16.10;99.90;;;16.32;100.00;100749.78;3579163;39;101583;-83
2021/07/07 07:08:59;;;;;;;1.17;1.08;;;16.10;99.90;;;16.24;100.00;100747.16;3654543;22;103860;-89
2021/07/07 07:11:26;;;;;;;1.25;1.10;;;17.20;99.90;;;16.16;100.00;100741.84;3547617;22;108036;-87
2021/07/07 07:13:53;;;;;;;1.10;1.00;;;15.30;99.90;;;16.19;100.00;100732.56;3266036;22;107287;-85
2021/07/07 07:18:46;;;;;;;2.67;1.52;;;16.00;99.90;;;16.29;100.00;100725.03;3435474;22;105623;-84
2021/07/07 07:21:15;;;;;;;2.22;1.30;;;16.60;99.90;;;16.41;100.00;100726.25;3634446;22;102135;-89
2021/07/07 07:23:42;;;;;;;1.60;1.17;;;16.00;99.90;;;16.37;100.00;100736.56;3568318;22;106556;-85
2021/07/07 07:26:09;;;;;;;1.77;1.15;;;17.00;99.90;;;16.34;100.00;100731.53;3561951;22;101378;-87
2021/07/07 07:29:24;;;;;;;1.05;0.95;;;16.80;99.90;;;16.29;100.00;100736.66;2881667;22;107127;-89
2021/07/07 07:32:36;;;;;;;2.22;1.50;;;16.10;99.90;;;16.40;100.00;100738.91;3561230;39;101945;-85
2021/07/07 07:35:49;;;;;;;1.30;1.20;;;16.10;99.90;;;16.58;100.00;100733.13;3552565;39;101369;-89
2021/07/07 07:38:31;;;;;;;2.25;1.30;;;16.30;99.90;;;16.63;100.00;100752.38;3216367;22;109282;-85
2021/07/07 07:40:58;;;;;;;1.27;0.82;;;16.20;99.90;;;16.47;100.00;100755.19;3589264;22;102296;-87
2021/07/07 07:43:26;;;;;;;1.30;1.17;;;16.30;99.90;;;16.57;100.00;100754.97;3620382;22;104258;-85
2021/07/07 07:46:29;;;;;;;2.10;1.50;;;17.40;99.90;;;16.47;100.00;100756.03;3643019;22;105951;-90
2021/07/07 07:49:34;;;;;;;1.10;1.00;;;16.30;99.90;;;16.53;100.00;100768.81;3673806;22;104885;-86
2021/07/07 07:52:01;;;;;;;4.05;1.50;;;16.30;99.90;;;16.58;100.00;100778.22;3582005;22;101801;-87
2021/07/07 07:54:30;;;;;;;2.30;1.30;;;16.30;99.90;;;16.59;100.00;100777.19;3564780;39;100779;-88
2021/07/07 07:56:57;;;;;;;1.30;1.20;;;17.20;99.90;;;16.46;100.00;100775.13;3564224;39;101211;-84
2021/07/07 07:59:24;;;;;;;1.73;1.35;;;16.40;99.90;;;16.58;100.00;100772.81;3130686;22;109574;-85
2021/07/07 08:01:54;;;;;;;1.85;1.20;;;16.40;99.90;;;16.66;100.00;100773.63;3515972;22;106959;-90
2021/07/07 08:04:22;;;;;;;1.40;1.30;;;17.60;99.90;;;16.44;100.00;100774.50;3577070;22;102137;-84
2021/07/07 08:06:50;;;;;;;1.27;1.00;;;16.40;99.90;;;16.63;100.00;100784.78;3074851;22;105726;31
2021/07/07 08:09:17;;;;;;;2.33;1.27;;;16.40;99.90;;;16.67;100.00;100778.00;3606554;22;107856;-88
2021/07/07 08:12:24;;;;;;;1.65;1.20;;;15.60;99.90;;;16.66;100.00;100781.72;3579282;22;101330;31
2021/07/07 08:15:36;;;;;;;1.20;1.10;;;16.40;99.90;;;16.68;100.00;100776.97;3503602;39;101883;-85
2021/07/07 08:18:12;;;;;;;1.60;1.50;;;16.40;99.90;;;16.67;100.00;100774.47;3123648;22;106970;-84
2021/07/07 08:20:40;;;;;;;1.95;1.38;;;15.70;99.90;;;16.54;100.00;100766.97;3584574;22;104326;-89
2021/07/07 08:23:07;;;;;;;1.55;1.25;;;16.40;99.90;;;16.74;100.00;100776.22;3585579;22;101728;-85
2021/07/07 08:26:01;;;;;;;1.77;1.35;;;16.40;99.90;;;16.83;100.00;100780.50;3466628;22;105935;-88
2021/07/07 08:28:38;;;;;;;2.95;1.60;;;16.40;99.90;;;16.77;100.00;100777.72;3494180;22;105947;-88
2021/07/07 08:31:05;;;;;;;5.43;1.60;;;16.20;99.90;;;16.66;100.00;100776.31;3167728;22;111583;-86
2021/07/07 08:34:09;;;;;;;1.25;1.15;;;16.60;99.90;;;16.56;100.00;100770.31;3616763;22;101570;-90
2021/07/07 08:36:45;;;;;;;4.03;1.60;;;16.60;99.90;;;16.64;100.00;100769.41;3559623;22;106750;-83
2021/07/07 08:39:14;;;;;;;1.58;1.38;;;16.60;99.90;;;16.36;100.00;100771.88;3595774;22;105338;31
2021/07/07 08:41:42;;;;;;;2.42;1.63;;;16.60;99.90;;;16.47;100.00;100783.06;3541633;39;100382;-90
2021/07/07 08:44:10;;;;;;;1.40;1.30;;;17.80;99.90;;;16.61;100.00;100794.91;3389504;22;106761;-87
2021/07/07 08:46:38;;;;;;;2.38;1.15;;;15.90;99.90;;;16.56;100.00;100805.44;3568565;39;101473;-88
2021/07/07 08:49:06;;;;;;;1.60;1.50;;;16.60;99.90;;;16.82;100.00;100819.34;3052270;22;107353;-84
2021/07/07 08:51:40;;;;;;;1.67;1.42;;;16.70;99.90;;;16.68;100.00;100822.06;3664426;22;100832;-87
2021/07/07 08:54:11;;;;;;;1.23;1.13;;;17.90;99.90;;;16.94;100.00;100827.03;2936101;22;107138;-90
2021/07/07 08:56:42;;;;;;;2.45;1.45;;;16.70;99.90;;;17.01;100.00;100817.97;3567924;22;105081;-88
2021/07/07 08:59:47;;;;;;;2.35;2.08;;;17.90;99.90;;;16.79;100.00;100806.25;3018994;22;107232;31
2021/07/07 09:03:06;;;;;;;1.73;1.63;;;16.80;99.90;;;16.90;100.00;100810.34;3536765;22;107135;-85
2021/07/07 09:05:51;;;;;;;1.80;1.15;;;16.80;99.90;;;17.10;100.00;100810.59;3621507;22;105879;-84
2021/07/07 09:08:18;;;;;;;2.20;2.00;;;16.90;99.90;;;17.36;100.00;100812.81;3614742;22;106044;31
2021/07/07 09:10:45;;;;;;;1.50;1.40;;;17.00;99.90;;;16.99;100.00;100806.50;3622097;22;101445;-86
2021/07/07 09:13:15;;;;;;;2.22;1.42;;;18.00;99.90;;;16.95;100.00;100802.47;3606689;39;101361;-86
2021/07/07 09:15:43;;;;;;;1.85;1.75;;;17.40;99.90;;;16.77;100.00;100802.88;3606846;39;101329;-86
2021/07/07 09:18:53;;;;;;;2.55;2.05;;;17.10;99.90;;;16.88;100.00;100809.69;3654311;22;107902;-86
2021/07/07 09:21:31;;;;;;;1.92;1.45;;;17.90;99.90;;;16.95;100.00;100807.88;2993955;22;106387;-91
2021/07/07 09:29:13;;;;;;;1.13;1.02;;;17.20;99.90;;;16.98;100.00;100836.41;3295002;22;107533;-89
2021/07/07 09:31:42;;;;;;;2.92;1.40;;;17.30;99.90;;;16.92;100.00;100838.03;3592329;22;104603;-90
2021/07/07 09:34:16;;;;;;;2.10;1.50;;;17.20;99.90;;;17.05;100.00;100831.97;2968598;22;106775;-92
2021/07/07 09:36:47;;;;;;;1.92;1.35;;;17.20;99.90;;;17.11;100.00;100837.44;3053358;22;107252;-88
2021/07/07 09:39:19;;;;;;;1.17;1.08;;;18.40;99.90;;;17.01;100.00;100836.06;3371081;22;107413;-92
2021/07/07 09:41:51;;;;;;;1.90;1.25;;;17.30;99.90;;;16.93;100.00;100831.59;2835375;22;107722;-87
2021/07/07 09:44:20;;;;;;;1.33;1.23;;;16.30;99.90;;;16.78;100.00;100833.44;3229038;22;107220;-88
2021/07/07 09:46:48;;;;;;;1.20;1.08;;;17.30;99.90;;;16.99;100.00;100846.22;2917189;22;107896;31
2021/07/07 09:49:16;;;;;;;1.58;1.20;;;17.60;99.90;;;17.12;100.00;100858.06;3210132;22;107373;-87
2021/07/07 09:54:48;;;;;;;4.22;1.58;;;17.30;99.90;;;17.13;100.00;100857.03;2859673;22;109023;-95
2021/07/07 09:57:25;;;;;;;1.55;1.45;;;18.10;99.90;;;17.10;100.00;100857.41;3596912;22;107346;31
2021/07/07 09:59:55;;;;;;;4.05;1.35;;;17.40;99.90;;;17.00;100.00;100847.91;2806899;22;104392;-93
2021/07/07 10:02:26;;;;;;;2.05;1.40;;;17.40;99.90;;;17.06;100.00;100852.56;3101927;22;106634;-84
2021/07/07 10:04:56;;;;;;;1.35;1.20;;;17.40;99.90;;;17.20;100.00;100854.41;2995469;22;107691;31
2021/07/07 10:07:26;;;;;;;2.20;1.55;;;17.90;99.90;;;17.28;100.00;100857.03;2390590;22;106920;31
2021/07/07 10:09:55;;;;;;;2.53;1.98;;;17.50;99.90;;;17.29;100.00;100855.16;3078314;22;105857;31
2021/07/07 10:12:26;;;;;;;2.22;1.52;;;17.50;99.90;;;17.29;100.00;100861.41;3334614;22;106846;-89
2021/07/07 10:14:55;;;;;;;1.20;1.10;;;18.60;99.90;;;17.42;100.00;100864.28;3280669;22;107164;-87
2021/07/07 10:17:25;;;;;;;1.67;1.58;;;18.40;99.90;;;17.49;100.00;100867.06;3671728;22;107239;31
2021/07/07 10:19:53;;;;;;;1.75;1.58;;;17.20;99.90;;;17.46;100.00;100864.75;3630078;22;107806;-85
2021/07/07 10:22:22;;;;;;;1.80;1.60;;;17.60;99.90;;;17.45;100.00;100861.19;3726729;22;105071;-88
2021/07/07 10:24:50;;;;;;;3.35;2.17;;;17.30;99.90;;;17.56;100.00;100873.38;3305225;22;101505;-83
2021/07/07 10:27:17;;;;;;;2.90;1.52;;;18.20;99.90;;;17.57;100.00;100866.94;3600205;39;103453;-84
2021/07/07 10:29:47;;;;;;;2.40;1.83;;;18.10;99.90;;;17.55;100.00;100860.91;3617139;22;101196;-84
2021/07/07 10:32:17;;;;;;;2.08;1.52;;;17.80;99.90;;;17.53;100.00;100871.09;3621258;22;100685;-89
2021/07/07 10:34:44;;;;;;;2.95;2.15;;;17.80;99.90;;;17.45;100.00;100854.94;3686939;22;106311;-92
2021/07/07 10:37:14;;;;;;;3.63;2.50;;;17.80;99.90;;;17.35;100.00;100841.72;3559357;22;106854;-88
2021/07/07 10:39:41;;;;;;;2.00;1.73;;;17.70;99.90;;;17.27;100.00;100838.28;3633020;22;105441;-88
2021/07/07 10:42:09;;;;;;;4.00;1.95;;;18.00;99.90;;;17.14;100.00;100836.25;3573978;22;105690;-88
2021/07/07 10:45:33;;;;;;;2.35;1.90;;;17.90;99.90;;;17.38;100.00;100852.16;3578840;22;101948;-86
2021/07/07 10:48:32;;;;;;;2.58;1.98;;;18.30;99.90;;;17.68;100.00;100855.66;3668009;22;105273;-90
2021/07/07 10:51:01;;;;;;;3.10;2.20;;;18.20;99.90;;;17.65;100.00;100855.22;3443137;22;102198;-84
2021/07/07 10:56:45;;;;;;;2.83;1.95;;;18.20;99.90;;;18.15;100.00;100860.56;3561974;39;101044;-84
2021/07/07 10:59:34;;;;;;;2.90;2.17;;;18.30;99.90;;;18.33;100.00;100851.97;3780000;22;102882;-83
2021/07/07 11:02:07;;;;;;;2.25;1.77;;;19.60;99.90;;;18.33;100.00;100838.41;3558575;39;101844;-83
2021/07/07 11:04:37;;;;;;;2.33;2.13;;;18.60;99.90;;;18.25;100.00;100816.91;3574134;22;100494;-88
2021/07/07 11:07:34;;;;;;;2.72;1.95;;;18.70;99.90;;;18.70;100.00;100814.75;3758501;22;105765;-82